Berwyn, Nebraska
Current Conditions -  °F | °C
As of 11:53 PM on Wednesday 26 Nov 2014 (Local Time) from KBBW Reporting Station
Overcast Overcast  
Wind Chill: 20°   Ceiling: 9500
Heat Index: 20°   Visibility: 10mi
Dew Point: 15°   Wind: 0mph
Humidity: 81%   Direction: NA
Pressure: 30.38"   Gusts: NA
Location:  41.35°N, 99.5°W
Report Text: KBBW 270553Z AUTO 00000KT 10SM OVC095 M07/M09 A3038 RMK AO2 SLP322 T10671094 11028 21089 400331089 53002
Loading
Personal Weather Stations






























Interactive Weather Map New forecast layout! Learn more

10-Day Weather Forecast

Advertisements
Track Severe Weather on mobile